Time;durP1;ratioP1;P1;durP2;ratioP2;P2;SDS_P1;SDS_P2;PMS_P1;PMS_P2;Temp;Humidity;BMP_temperature;BMP_pressure;BME280_temperature;BME280_humidity;BME280_pressure;Samples;Min_cycle;Max_cycle;Signal;HPM_P1;HPM_P2
2024/03/05 00:01:59;;;;;;;44.80;25.10;;;;;;;2.70;73.00;100696.70;102785;1294;24604;-58
2024/03/05 00:04:26;;;;;;;45.30;24.70;;;;;;;2.62;72.88;100702.36;102948;1313;22615;-59
2024/03/05 00:06:52;;;;;;;38.60;23.70;;;;;;;2.54;72.92;100703.42;102892;1313;22811;-57
2024/03/05 00:09:17;;;;;;;39.70;23.80;;;;;;;2.47;73.11;100709.44;102982;1301;25391;-57
2024/03/05 00:11:43;;;;;;;43.60;24.20;;;;;;;2.42;73.09;100710.02;102736;1314;26554;-58
2024/03/05 00:14:08;;;;;;;40.90;23.30;;;;;;;2.40;73.32;100709.80;102989;1311;25341;-57
2024/03/05 00:16:34;;;;;;;42.80;24.40;;;;;;;2.35;73.23;100710.39;102888;1299;23934;-58
2024/03/05 00:19:00;;;;;;;47.50;25.10;;;;;;;2.31;73.33;100709.98;102838;1312;26551;-59
2024/03/05 00:21:26;;;;;;;47.00;25.70;;;;;;;2.30;73.71;100710.64;102823;1301;22918;-58
2024/03/05 00:23:52;;;;;;;39.10;24.80;;;;;;;2.30;73.70;100712.33;102802;1301;22565;-58
2024/03/05 00:26:18;;;;;;;42.10;24.90;;;;;;;2.30;73.44;100709.45;102702;1316;22685;-60
2024/03/05 00:28:44;;;;;;;44.40;25.80;;;;;;;2.30;73.36;100709.78;102862;1303;22575;-58
2024/03/05 00:31:10;;;;;;;48.00;23.40;;;;;;;2.26;73.58;100713.45;102647;1317;25484;-58
2024/03/05 00:33:36;;;;;;;41.50;24.90;;;;;;;2.21;73.83;100713.52;102824;1297;22647;-59
2024/03/05 00:36:03;;;;;;;44.90;25.00;;;;;;;2.15;74.29;100710.16;102967;1303;22589;-58
2024/03/05 00:38:34;;;;;;;39.40;23.90;;;;;;;2.06;74.40;100712.55;102667;1303;22595;-57
2024/03/05 00:41:00;;;;;;;39.60;24.50;;;;;;;2.00;74.27;100714.66;102797;1310;26746;-57
2024/03/05 00:43:26;;;;;;;42.00;25.30;;;;;;;1.97;74.14;100713.59;106925;1297;22462;-57
2024/03/05 00:45:51;;;;;;;42.00;25.20;;;;;;;1.95;74.06;100718.98;106981;1310;22338;-59
2024/03/05 00:48:19;;;;;;;40.70;24.00;;;;;;;1.93;74.32;100718.93;106032;1300;24588;-58
2024/03/05 00:50:45;;;;;;;42.60;22.90;;;;;;;1.90;74.07;100716.67;102804;1298;22590;-57
2024/03/05 00:53:11;;;;;;;32.90;21.50;;;;;;;1.86;73.94;100720.14;102922;1300;25372;-56
2024/03/05 00:55:37;;;;;;;40.00;23.30;;;;;;;1.83;73.66;100716.52;102820;1309;22568;-57
2024/03/05 00:58:12;;;;;;;37.60;22.50;;;;;;;1.80;73.59;100713.38;102871;1316;22596;-57
2024/03/05 01:00:38;;;;;;;45.10;21.50;;;;;;;1.76;73.46;100714.83;102868;1310;23289;-56
2024/03/05 01:03:04;;;;;;;44.70;22.30;;;;;;;1.72;73.60;100716.43;102830;1298;22562;-58
2024/03/05 01:05:30;;;;;;;36.70;20.00;;;;;;;1.69;73.75;100717.91;102891;1316;25393;-57
2024/03/05 01:07:56;;;;;;;38.50;20.50;;;;;;;1.64;73.80;100717.13;102809;1310;23931;-57
2024/03/05 01:10:21;;;;;;;41.80;20.20;;;;;;;1.59;73.74;100717.70;102907;1309;22636;-58
2024/03/05 01:12:47;;;;;;;36.00;19.50;;;;;;;1.54;73.72;100715.91;102878;1294;22708;-58
2024/03/05 01:15:12;;;;;;;38.60;18.90;;;;;;;1.51;73.92;100714.83;102815;1316;22598;-58
2024/03/05 01:17:39;;;;;;;34.50;19.60;;;;;;;1.49;74.21;100715.30;102934;1316;22588;-57
2024/03/05 01:20:06;;;;;;;;;;;;;;;1.48;74.55;100713.06;104609;1303;25479;-58
2024/03/05 01:22:35;;;;;;;28.60;17.00;;;;;;;1.46;74.65;100719.82;103833;1294;25648;-58
2024/03/05 01:25:00;;;;;;;31.90;18.70;;;;;;;1.41;74.47;100720.89;102895;1316;22610;-59
2024/03/05 01:27:27;;;;;;;31.70;18.50;;;;;;;1.35;74.19;100723.29;102815;1300;23195;-58
2024/03/05 01:29:53;;;;;;;30.70;17.60;;;;;;;1.31;74.26;100723.05;102893;1303;22979;-58
2024/03/05 01:32:19;;;;;;;34.40;18.10;;;;;;;1.29;74.23;100721.30;102845;1315;24342;-56
2024/03/05 01:34:47;;;;;;;30.80;18.30;;;;;;;1.28;74.22;100717.03;102832;1297;22633;-57
2024/03/05 01:37:13;;;;;;;31.90;17.90;;;;;;;1.22;74.62;100717.73;102994;1301;22566;-57
2024/03/05 01:39:38;;;;;;;29.10;17.10;;;;;;;1.16;74.06;100718.60;102997;1313;25187;-56
2024/03/05 01:42:07;;;;;;;33.70;17.20;;;;;;;1.12;74.15;100718.34;102889;1310;22877;-57
2024/03/05 01:44:33;;;;;;;30.30;16.60;;;;;;;1.08;74.26;100718.58;103018;1297;22693;-58
2024/03/05 01:47:00;;;;;;;29.50;16.90;;;;;;;1.03;74.42;100720.16;102834;1306;25534;-58
2024/03/05 01:49:28;;;;;;;27.00;17.00;;;;;;;0.97;74.40;100720.90;106828;1316;22306;-59
2024/03/05 01:51:57;;;;;;;30.70;16.50;;;;;;;0.95;74.34;100721.88;106725;1303;22762;-58
2024/03/05 01:54:26;;;;;;;30.50;15.70;;;;;;;0.96;74.25;100722.90;102891;1297;22690;-58
2024/03/05 01:56:54;;;;;;;30.80;16.20;;;;;;;0.97;74.56;100724.30;107026;1310;22236;-58
2024/03/05 01:59:21;;;;;;;32.40;16.60;;;;;;;0.95;74.76;100726.09;104781;1301;22595;-58
2024/03/05 02:01:48;;;;;;;28.30;16.30;;;;;;;0.92;74.91;100726.71;106999;1308;22307;-58
2024/03/05 02:04:15;;;;;;;27.60;16.50;;;;;;;0.91;74.58;100727.86;106943;1296;22466;-59
2024/03/05 02:06:42;;;;;;;33.10;15.70;;;;;;;0.90;74.47;100728.02;106911;1313;23398;-59
2024/03/05 02:09:15;;;;;;;;;;;;;;;0.88;74.54;100725.94;103199;1316;24392;-58
2024/03/05 02:11:44;;;;;;;25.20;15.00;;;;;;;0.87;74.90;100730.14;102707;1293;24814;-58
2024/03/05 02:14:10;;;;;;;23.10;15.00;;;;;;;0.84;74.60;100731.27;102923;1292;22802;-59
2024/03/05 02:16:37;;;;;;;23.70;16.00;;;;;;;0.82;75.42;100730.70;102936;1310;22603;-58
2024/03/05 02:19:04;;;;;;;21.50;13.90;;;;;;;0.77;75.08;100732.42;102918;1301;25411;-59
2024/03/05 02:21:31;;;;;;;26.20;15.00;;;;;;;0.73;74.76;100734.20;102846;1315;25415;-59
2024/03/05 02:23:57;;;;;;;24.90;15.50;;;;;;;0.71;74.71;100736.00;102942;1294;22586;-59
2024/03/05 02:26:25;;;;;;;24.40;14.40;;;;;;;0.68;74.87;100736.60;102940;1309;24393;-57
2024/03/05 02:28:52;;;;;;;25.10;14.80;;;;;;;0.63;75.76;100740.56;102653;1312;25355;-58
2024/03/05 02:31:18;;;;;;;;;;;;;;;0.61;75.30;100739.31;106240;1309;23257;-59
2024/03/05 02:33:44;;;;;;;26.90;14.10;;;;;;;0.62;75.15;100741.20;102932;1301;24347;-59
2024/03/05 02:36:10;;;;;;;28.50;13.30;;;;;;;0.61;75.36;100745.27;102927;1297;22571;-58
2024/03/05 02:38:38;;;;;;;27.30;13.50;;;;;;;0.60;75.30;100745.58;102890;1310;22992;-57
2024/03/05 02:41:04;;;;;;;27.20;14.90;;;;;;;0.59;75.35;100745.38;103201;1310;22625;-59
2024/03/05 02:43:30;;;;;;;23.10;13.30;;;;;;;0.58;75.45;100746.20;102995;1301;22564;-58
2024/03/05 02:45:56;;;;;;;28.10;13.50;;;;;;;0.56;75.60;100749.70;102827;1300;22571;-57
2024/03/05 02:48:22;;;;;;;34.50;15.40;;;;;;;0.54;75.44;100751.00;102858;1307;25336;-58
2024/03/05 02:50:48;;;;;;;25.90;14.30;;;;;;;0.52;75.67;100750.96;102903;1316;25350;-59
2024/03/05 02:53:14;;;;;;;24.50;13.40;;;;;;;0.51;75.63;100757.39;102970;1316;22715;-58
2024/03/05 02:55:41;;;;;;;23.40;13.70;;;;;;;0.50;75.89;100753.64;102879;1297;22761;-58
2024/03/05 02:58:06;;;;;;;28.30;13.40;;;;;;;0.49;76.08;100755.14;102977;1313;22846;-59
2024/03/05 03:00:33;;;;;;;24.40;14.20;;;;;;;0.51;75.92;100755.17;102905;1308;23221;-56
2024/03/05 03:02:59;;;;;;;27.00;13.90;;;;;;;0.51;76.04;100757.04;102933;1308;22563;-58
2024/03/05 03:05:25;;;;;;;27.00;14.00;;;;;;;0.49;75.72;100757.67;102915;1296;22698;-59
2024/03/05 03:07:51;;;;;;;28.90;13.40;;;;;;;0.48;75.89;100756.79;102900;1300;22719;-58
2024/03/05 03:10:17;;;;;;;24.10;13.50;;;;;;;0.47;76.14;100756.61;102843;1309;22653;-59
2024/03/05 03:12:47;;;;;;;24.50;13.70;;;;;;;0.47;76.33;100757.45;102828;1309;25324;-60
2024/03/05 03:15:13;;;;;;;29.50;15.50;;;;;;;0.47;76.19;100754.06;103536;1298;22829;-59
2024/03/05 03:17:40;;;;;;;24.80;14.30;;;;;;;0.48;75.93;100758.00;102983;1301;22849;-57
2024/03/05 03:20:08;;;;;;;25.00;14.20;;;;;;;0.49;75.81;100759.90;102965;1301;22566;-58
2024/03/05 03:22:34;;;;;;;28.50;14.30;;;;;;;0.50;76.36;100760.08;104437;1309;23192;-59
2024/03/05 03:25:00;;;;;;;21.40;14.10;;;;;;;0.47;76.67;100759.67;103013;1316;22580;-57
2024/03/05 03:27:25;;;;;;;24.40;15.70;;;;;;;0.46;76.26;100763.86;102905;1296;22594;-58
2024/03/05 03:29:51;;;;;;;23.30;13.80;;;;;;;0.46;76.04;100758.27;102661;1312;24501;-58
2024/03/05 03:32:19;;;;;;;25.70;14.70;;;;;;;0.48;75.95;100761.37;103174;1314;23340;-57
2024/03/05 03:34:45;;;;;;;26.80;13.90;;;;;;;0.45;75.92;100762.31;102927;1314;22825;-58
2024/03/05 03:37:12;;;;;;;32.00;14.00;;;;;;;0.44;76.29;100762.80;102787;1299;25482;-58
2024/03/05 03:39:43;;;;;;;22.70;14.30;;;;;;;0.41;76.43;100763.20;102569;1311;22586;-59
2024/03/05 03:42:12;;;;;;;23.50;14.70;;;;;;;0.39;76.08;100761.30;104915;1313;24372;-58
2024/03/05 03:44:39;;;;;;;24.70;13.70;;;;;;;0.37;76.62;100766.84;102853;1316;22561;-59
2024/03/05 03:47:05;;;;;;;27.30;14.40;;;;;;;0.34;76.38;100765.59;102993;1294;22565;-58
2024/03/05 03:49:31;;;;;;;23.90;13.20;;;;;;;0.35;76.14;100769.34;102681;1316;23507;-58
2024/03/05 03:51:57;;;;;;;22.40;14.00;;;;;;;0.36;75.93;100769.86;102960;1316;22665;-60
2024/03/05 03:54:22;;;;;;;23.10;14.20;;;;;;;0.37;76.32;100769.22;102887;1315;22979;-58
2024/03/05 03:56:48;;;;;;;27.20;14.90;;;;;;;0.39;76.62;100770.96;102929;1297;22567;-59
2024/03/05 03:59:14;;;;;;;28.20;14.90;;;;;;;0.42;76.44;100771.73;102917;1295;22626;-59
2024/03/05 04:01:44;;;;;;;25.60;15.20;;;;;;;0.49;76.39;100773.10;102908;1308;22688;-59
2024/03/05 04:04:12;;;;;;;28.60;15.20;;;;;;;0.57;76.47;100774.66;102674;1313;23037;-59
2024/03/05 04:06:39;;;;;;;22.30;15.30;;;;;;;0.64;76.60;100777.39;102672;1300;22622;-60
2024/03/05 04:09:08;;;;;;;22.00;15.00;;;;;;;0.71;76.38;100779.78;104511;1310;22845;-58
2024/03/05 04:11:36;;;;;;;30.00;15.70;;;;;;;0.79;76.93;100782.70;102877;1306;25469;-58
2024/03/05 04:14:02;;;;;;;29.20;15.60;;;;;;;0.87;77.08;100784.27;102684;1306;22680;-60
2024/03/05 04:16:28;;;;;;;25.20;15.60;;;;;;;0.92;77.09;100789.00;104873;1300;22573;-58
2024/03/05 04:18:55;;;;;;;25.80;14.60;;;;;;;0.99;77.13;100790.20;102767;1316;23220;-58
2024/03/05 04:21:20;;;;;;;32.30;15.70;;;;;;;1.06;77.26;100793.05;102754;1316;23174;-58
2024/03/05 04:23:46;;;;;;;22.40;15.40;;;;;;;1.11;77.36;100793.17;102879;1313;26871;-58
2024/03/05 04:26:13;;;;;;;21.90;14.70;;;;;;;1.17;77.15;100794.34;102863;1310;22603;-59
2024/03/05 04:28:48;;;;;;;21.90;15.00;;;;;;;1.23;77.14;100788.73;102863;1300;24369;-59
2024/03/05 04:31:15;;;;;;;25.50;15.60;;;;;;;1.29;77.15;100790.42;104036;1316;22826;-59
2024/03/05 04:33:43;;;;;;;22.80;13.80;;;;;;;1.36;77.19;100793.45;102904;1310;25475;-58
2024/03/05 04:36:09;;;;;;;25.80;14.90;;;;;;;1.43;77.27;100792.43;104023;1311;22565;-59
2024/03/05 04:38:40;;;;;;;25.20;15.00;;;;;;;1.50;77.18;100793.27;102825;1300;22571;-59
2024/03/05 04:41:07;;;;;;;29.00;15.50;;;;;;;1.56;77.35;100789.67;103456;1313;22575;-56
2024/03/05 04:43:32;;;;;;;20.20;14.00;;;;;;;1.63;77.73;100792.89;103598;1317;22697;-57
2024/03/05 04:45:59;;;;;;;29.10;15.60;;;;;;;1.68;78.12;100793.83;102742;1313;22585;-58
2024/03/05 04:48:25;;;;;;;;;;;;;;;1.71;77.83;100794.76;102691;1305;22554;-59
2024/03/05 04:50:51;;;;;;;22.50;13.40;;;;;;;1.77;78.13;100797.12;95862;1310;10003398;-56
2024/03/05 04:53:18;;;;;;;25.60;14.00;;;;;;;1.81;77.93;100795.34;102947;1316;24276;-57
2024/03/05 04:55:44;;;;;;;22.70;14.80;;;;;;;1.84;77.95;100792.00;102927;1294;22590;-57
2024/03/05 04:58:09;;;;;;;24.30;15.20;;;;;;;1.87;77.98;100794.12;103671;1294;25527;-56
2024/03/05 05:00:35;;;;;;;20.50;14.20;;;;;;;1.90;78.68;100794.70;102658;1313;24143;-58
2024/03/05 05:03:00;;;;;;;34.40;15.60;;;;;;;1.94;78.12;100791.54;102839;1304;22709;-58
2024/03/05 05:05:26;;;;;;;24.80;15.60;;;;;;;1.97;78.05;100793.33;102748;1316;23640;-59
2024/03/05 05:07:56;;;;;;;21.00;15.10;;;;;;;2.02;78.25;100796.30;102879;1297;22803;-57
2024/03/05 05:10:21;;;;;;;26.40;16.80;;;;;;;2.03;78.13;100795.30;102948;1316;22646;-59
2024/03/05 05:12:47;;;;;;;33.00;21.20;;;;;;;2.04;78.19;100793.61;102818;1312;22814;-58
2024/03/05 05:15:14;;;;;;;30.00;19.60;;;;;;;2.08;78.67;100794.70;102829;1303;25873;-57
2024/03/05 05:17:39;;;;;;;51.80;29.00;;;;;;;2.09;78.82;100796.59;102874;1309;22581;-58
2024/03/05 05:20:08;;;;;;;34.80;18.70;;;;;;;2.10;78.69;100798.99;102960;1301;22715;-56
2024/03/05 05:22:37;;;;;;;24.80;15.60;;;;;;;2.11;79.33;100796.80;103963;1310;23052;-57
2024/03/05 05:25:05;;;;;;;34.80;16.50;;;;;;;2.11;78.73;100799.35;102931;1310;23063;-58
2024/03/05 05:27:30;;;;;;;23.40;15.10;;;;;;;2.13;79.04;100800.42;103922;1294;23185;-58
2024/03/05 05:29:57;;;;;;;25.80;15.60;;;;;;;2.13;79.00;100803.83;102797;1297;22889;-58
2024/03/05 05:32:23;;;;;;;;;;;;;;;2.14;78.82;100801.64;102863;1291;22561;-58
2024/03/05 05:34:49;;;;;;;23.90;14.20;;;;;;;2.16;79.03;100807.63;102850;1293;22738;-57
2024/03/05 05:37:15;;;;;;;29.70;15.70;;;;;;;2.18;78.78;100804.45;102881;1309;24710;-58
2024/03/05 05:39:41;;;;;;;26.80;17.60;;;;;;;2.22;78.79;100810.13;102990;1296;23975;-59
2024/03/05 05:42:11;;;;;;;25.90;17.20;;;;;;;2.24;79.00;100814.93;102993;1310;22693;-58
2024/03/05 05:44:36;;;;;;;23.50;15.00;;;;;;;2.24;78.59;100809.49;104079;1292;22558;-60
2024/03/05 05:47:03;;;;;;;23.10;16.30;;;;;;;2.27;78.92;100812.11;102975;1316;22796;-59
2024/03/05 05:49:32;;;;;;;27.00;16.40;;;;;;;2.29;79.00;100810.98;102931;1299;24255;-56
2024/03/05 05:51:58;;;;;;;21.80;14.80;;;;;;;2.30;78.78;100815.41;104566;1308;24221;-58
2024/03/05 05:54:24;;;;;;;28.10;17.10;;;;;;;2.31;78.79;100811.85;102972;1316;25435;-58
2024/03/05 05:56:49;;;;;;;24.00;16.00;;;;;;;2.31;78.84;100811.86;102782;1316;25430;-57
2024/03/05 05:59:15;;;;;;;24.00;15.90;;;;;;;2.32;79.16;100812.73;102974;1294;23041;-56
2024/03/05 06:01:41;;;;;;;25.20;16.00;;;;;;;2.32;79.33;100811.21;106961;1310;22425;-58
2024/03/05 06:04:07;;;;;;;22.20;15.60;;;;;;;2.34;79.12;100808.34;107065;1308;23543;-59
2024/03/05 06:06:39;;;;;;;23.00;15.30;;;;;;;2.37;78.83;100812.98;107017;1314;22278;-57
2024/03/05 06:09:10;;;;;;;31.80;16.30;;;;;;;2.40;78.76;100816.29;106931;1296;22328;-59
2024/03/05 06:11:37;;;;;;;26.20;16.10;;;;;;;2.42;78.80;100820.25;106880;1307;22498;-58
2024/03/05 06:14:02;;;;;;;22.30;15.60;;;;;;;2.45;78.90;100819.62;106907;1296;22424;-57
2024/03/05 06:16:29;;;;;;;22.50;15.30;;;;;;;2.50;79.15;100819.38;104147;1312;24172;-58
2024/03/05 06:18:56;;;;;;;27.90;15.30;;;;;;;2.54;79.32;100821.34;102870;1293;22572;-58
2024/03/05 06:21:22;;;;;;;26.60;16.00;;;;;;;2.56;79.20;100824.11;102892;1300;25585;-59
2024/03/05 06:23:47;;;;;;;24.20;14.00;;;;;;;2.58;79.17;100820.39;102874;1301;22572;-57
2024/03/05 06:26:13;;;;;;;24.20;15.10;;;;;;;2.62;79.65;100813.48;102662;1300;22567;-58
2024/03/05 06:28:38;;;;;;;21.40;15.50;;;;;;;2.61;79.47;100814.83;102763;1307;22594;-56
2024/03/05 06:31:04;;;;;;;25.60;15.90;;;;;;;2.62;79.56;100815.17;102881;1297;22587;-58
2024/03/05 06:33:30;;;;;;;21.30;14.00;;;;;;;2.62;79.60;100814.84;102848;1314;22574;-59
2024/03/05 06:35:58;;;;;;;27.30;14.80;;;;;;;2.63;79.63;100816.72;102722;1316;22599;-58
2024/03/05 06:38:24;;;;;;;25.10;16.20;;;;;;;2.63;79.45;100823.20;102706;1316;22578;-59
2024/03/05 06:40:50;;;;;;;20.20;14.10;;;;;;;2.66;79.48;100822.56;102697;1310;23055;-56
2024/03/05 06:43:20;;;;;;;23.30;14.20;;;;;;;2.70;80.02;100821.96;102921;1314;22580;-56
2024/03/05 06:45:46;;;;;;;28.00;15.30;;;;;;;2.70;79.76;100824.02;102898;1313;22572;-58
2024/03/05 06:48:18;;;;;;;22.20;15.00;;;;;;;2.71;79.77;100822.16;102744;1309;23990;-57
2024/03/05 06:50:47;;;;;;;30.10;16.60;;;;;;;2.74;80.03;100825.27;102867;1297;22700;-58
2024/03/05 06:58:45;;;;;;;25.50;15.30;;;;;;;2.82;79.72;100826.63;102906;1313;24375;-56
2024/03/05 07:01:13;;;;;;;25.30;15.70;;;;;;;2.84;79.97;100832.12;104602;1298;22708;-57
2024/03/05 07:03:40;;;;;;;24.10;15.30;;;;;;;2.84;80.07;100832.45;105661;1309;22636;-56
2024/03/05 07:06:07;;;;;;;26.70;16.10;;;;;;;2.85;79.90;100830.61;102934;1313;22635;-56
2024/03/05 07:08:40;;;;;;;23.50;16.20;;;;;;;2.86;79.72;100830.78;104331;1302;25527;-58
2024/03/05 07:11:08;;;;;;;24.20;16.70;;;;;;;2.89;79.76;100833.73;103157;1298;22628;-56
2024/03/05 07:13:47;;;;;;;26.90;15.70;;;;;;;2.93;79.87;100835.86;103026;1316;22828;-58
2024/03/05 07:16:15;;;;;;;31.40;17.30;;;;;;;2.94;80.04;100835.54;103198;1300;22568;-58
2024/03/05 07:18:47;;;;;;;28.80;17.50;;;;;;;2.95;80.12;100836.58;103048;1316;25323;-59
2024/03/05 07:21:13;;;;;;;60.60;33.40;;;;;;;2.98;80.11;100838.67;102952;1296;22683;-58
2024/03/05 07:23:44;;;;;;;55.60;30.60;;;;;;;3.04;80.05;100838.59;102971;1315;23110;-58
2024/03/05 07:26:09;;;;;;;37.50;23.40;;;;;;;3.07;80.28;100842.59;102951;1303;22890;-57
2024/03/05 07:28:37;;;;;;;44.60;27.00;;;;;;;3.07;80.11;100842.59;102955;1303;22571;-56
2024/03/05 07:31:03;;;;;;;31.20;19.60;;;;;;;3.12;80.33;100847.43;103176;1308;22578;-59
2024/03/05 07:33:30;;;;;;;30.80;18.80;;;;;;;3.16;80.54;100842.54;103006;1313;24281;-57
2024/03/05 07:35:56;;;;;;;30.00;19.50;;;;;;;3.18;80.31;100841.39;103038;1313;22754;-59
2024/03/05 07:38:22;;;;;;;28.60;18.40;;;;;;;3.25;80.30;100844.23;102844;1316;22724;-59
2024/03/05 07:40:48;;;;;;;21.60;15.80;;;;;;;3.33;80.38;100844.55;102986;1299;26040;-57
2024/03/05 07:43:13;;;;;;;21.70;14.80;;;;;;;3.38;80.73;100844.80;102827;1294;23016;-58
2024/03/05 07:45:39;;;;;;;20.80;14.80;;;;;;;3.41;80.49;100845.88;102865;1309;27552;-58
2024/03/05 07:48:05;;;;;;;20.60;14.00;;;;;;;3.46;80.48;100842.21;102988;1294;22944;-56
2024/03/05 07:50:31;;;;;;;23.70;15.40;;;;;;;3.54;80.61;100847.45;103180;1294;22592;-56
2024/03/05 07:52:57;;;;;;;18.10;14.80;;;;;;;3.59;80.79;100847.73;103037;1300;23693;-56
2024/03/05 07:55:24;;;;;;;22.60;16.20;;;;;;;3.62;80.76;100850.48;102961;1301;22583;-59
2024/03/05 07:57:52;;;;;;;;;;;;;;;3.67;80.61;100852.92;103004;1303;22663;-58
2024/03/05 08:00:20;;;;;;;31.60;17.30;;;;;;;3.74;80.64;100856.10;103146;1316;23914;-58
2024/03/05 08:02:47;;;;;;;34.30;19.30;;;;;;;3.78;80.56;100852.76;102927;1308;23999;-58
2024/03/05 08:05:18;;;;;;;36.30;19.20;;;;;;;3.82;80.66;100855.20;102956;1314;22582;-55
2024/03/05 08:07:45;;;;;;;41.00;22.20;;;;;;;3.86;80.80;100859.02;102977;1291;22562;-56
2024/03/05 08:10:16;;;;;;;33.80;18.30;;;;;;;3.87;80.94;100855.79;103019;1307;25374;-57
2024/03/05 08:12:44;;;;;;;27.20;15.90;;;;;;;3.82;81.07;100857.08;102892;1297;22582;-58
2024/03/05 08:15:15;;;;;;;24.60;17.60;;;;;;;3.79;81.09;100856.01;103412;1311;25539;-58
2024/03/05 08:17:45;;;;;;;23.00;16.30;;;;;;;3.78;81.07;100858.55;103114;1308;22562;-56
2024/03/05 08:20:15;;;;;;;26.80;16.00;;;;;;;3.82;80.96;100861.52;102968;1297;22736;-55
2024/03/05 08:22:43;;;;;;;23.60;16.30;;;;;;;3.85;80.93;100862.75;102952;1298;22657;-58
2024/03/05 08:25:13;;;;;;;21.20;14.80;;;;;;;3.88;81.06;100865.86;103174;1310;22969;-57
2024/03/05 08:27:47;;;;;;;20.70;14.30;;;;;;;3.89;80.88;100868.62;102833;1313;22684;-59
2024/03/05 08:30:18;;;;;;;16.90;12.20;;;;;;;3.94;81.11;100869.70;102806;1310;23943;-58
2024/03/05 08:32:44;;;;;;;16.90;12.10;;;;;;;3.94;81.22;100872.61;106370;1296;22592;-58
2024/03/05 08:35:13;;;;;;;17.60;13.00;;;;;;;3.93;81.12;100875.67;102930;1300;26800;-57
2024/03/05 08:37:41;;;;;;;15.90;12.90;;;;;;;3.91;81.10;100871.55;102956;1310;22579;-58
2024/03/05 08:40:14;;;;;;;22.20;14.90;;;;;;;3.93;81.18;100874.64;103038;1300;22582;-53
2024/03/05 08:42:43;;;;;;;19.70;13.40;;;;;;;3.92;81.31;100878.90;103116;1297;22584;-58
2024/03/05 08:45:10;;;;;;;18.20;13.70;;;;;;;3.87;81.21;100878.13;102960;1316;22583;-57
2024/03/05 08:47:37;;;;;;;24.10;15.50;;;;;;;3.86;81.42;100881.02;103342;1310;22607;-57
2024/03/05 08:50:03;;;;;;;21.50;16.70;;;;;;;3.85;81.32;100879.30;102884;1313;25418;-56
2024/03/05 08:52:28;;;;;;;32.20;17.50;;;;;;;3.84;81.15;100875.36;104101;1294;22672;-57
2024/03/05 08:54:55;;;;;;;24.20;16.40;;;;;;;3.84;81.21;100878.60;102909;1310;22565;-59
2024/03/05 08:57:22;;;;;;;25.00;16.70;;;;;;;3.85;81.31;100879.64;102979;1315;22633;-58
2024/03/05 08:59:48;;;;;;;23.70;16.20;;;;;;;3.86;81.42;100880.16;102903;1310;22571;-58
2024/03/05 09:02:14;;;;;;;24.40;16.40;;;;;;;3.83;81.37;100883.02;102836;1292;22585;-56
2024/03/05 09:04:39;;;;;;;20.50;16.40;;;;;;;3.79;81.48;100885.00;102890;1311;22579;-57
2024/03/05 09:07:04;;;;;;;21.70;16.50;;;;;;;3.79;81.41;100888.41;102875;1308;24519;-58
2024/03/05 09:09:30;;;;;;;27.70;18.00;;;;;;;3.79;81.48;100884.83;102814;1298;23020;-56
2024/03/05 09:11:57;;;;;;;23.70;17.20;;;;;;;3.83;81.48;100884.55;102889;1301;25515;-56
2024/03/05 09:14:24;;;;;;;23.10;18.00;;;;;;;3.88;81.34;100886.16;102934;1311;22908;-57
2024/03/05 09:16:50;;;;;;;;;;;;;;;3.90;81.29;100885.17;104522;1301;23860;-56
2024/03/05 09:19:16;;;;;;;20.20;15.70;;;;;;;3.93;81.37;100886.25;102941;1313;25544;-57
2024/03/05 09:21:44;;;;;;;;;;;;;;;3.94;81.31;100886.93;102741;1316;23038;-57
2024/03/05 09:24:10;;;;;;;25.90;17.40;;;;;;;3.98;81.28;100885.98;102885;1298;22664;-59
2024/03/05 09:26:36;;;;;;;28.70;18.80;;;;;;;4.03;81.28;100883.99;102873;1310;22681;-56
2024/03/05 09:29:02;;;;;;;27.80;18.50;;;;;;;4.06;81.26;100888.66;106972;1313;22323;-57
2024/03/05 09:31:28;;;;;;;28.10;20.30;;;;;;;4.13;81.40;100887.56;106988;1310;22294;-56
2024/03/05 09:33:53;;;;;;;25.00;17.80;;;;;;;4.18;81.46;100885.56;106889;1297;23525;-58
2024/03/05 09:36:19;;;;;;;24.00;17.90;;;;;;;4.20;81.44;100882.02;106995;1315;22444;-57
2024/03/05 09:38:47;;;;;;;20.90;16.10;;;;;;;4.26;81.49;100885.16;106976;1306;22356;-56
2024/03/05 09:41:13;;;;;;;20.90;15.30;;;;;;;4.37;81.50;100883.60;105797;1316;27363;-57
2024/03/05 09:43:41;;;;;;;18.50;15.60;;;;;;;4.52;81.63;100885.69;102750;1308;24402;-58
2024/03/05 09:46:07;;;;;;;31.60;19.50;;;;;;;4.65;81.58;100882.09;105379;1310;22668;-58
2024/03/05 09:48:38;;;;;;;34.40;21.80;;;;;;;4.77;81.69;100883.91;103034;1300;24665;-56
2024/03/05 09:51:15;;;;;;;31.80;19.20;;;;;;;4.83;81.73;100887.23;106985;1316;22239;-57
2024/03/05 09:53:40;;;;;;;36.40;21.20;;;;;;;4.89;81.64;100889.53;107030;1294;22264;-56
2024/03/05 09:56:06;;;;;;;38.00;22.80;;;;;;;4.98;81.70;100887.75;106991;1310;22416;-55
2024/03/05 09:58:38;;;;;;;33.40;21.90;;;;;;;5.09;81.82;100885.48;107029;1308;22991;-59
2024/03/05 10:01:05;;;;;;;27.10;18.50;;;;;;;5.17;81.84;100891.04;106954;1313;22234;-58
2024/03/05 10:03:37;;;;;;;22.40;17.40;;;;;;;5.26;81.86;100889.56;106483;1296;22590;-59
2024/03/05 10:06:09;;;;;;;32.70;20.90;;;;;;;5.31;81.66;100892.34;106923;1313;22360;-58
2024/03/05 10:08:34;;;;;;;27.00;19.60;;;;;;;5.28;81.52;100893.17;106892;1306;22270;-56
2024/03/05 10:11:02;;;;;;;32.40;23.30;;;;;;;5.26;81.50;100893.84;106997;1304;22342;-58
2024/03/05 10:13:35;;;;;;;23.70;18.20;;;;;;;5.29;81.58;100893.52;106975;1293;22326;-58
2024/03/05 10:16:17;;;;;;;24.50;18.20;;;;;;;5.26;81.56;100897.25;107024;1304;23598;-58
2024/03/05 10:18:43;;;;;;;34.50;24.60;;;;;;;5.22;81.75;100896.88;106794;1310;22411;-57
2024/03/05 10:21:19;;;;;;;31.30;20.20;;;;;;;5.19;81.74;100902.17;106877;1304;22349;-57
2024/03/05 10:24:05;;;;;;;41.90;30.30;;;;;;;5.19;81.72;100901.14;106999;1292;22469;-56
2024/03/05 10:26:32;;;;;;;27.80;21.30;;;;;;;5.16;81.59;100899.92;106937;1308;22278;-57
2024/03/05 10:28:58;;;;;;;;;;;;;;;5.17;81.71;100896.34;107025;1300;22495;-56
2024/03/05 10:31:27;;;;;;;18.60;15.00;;;;;;;5.15;81.58;100896.48;106816;1316;287833;-57
2024/03/05 10:33:56;;;;;;;20.20;15.70;;;;;;;5.19;81.74;100896.52;106833;1294;22407;-58
2024/03/05 10:36:26;;;;;;;19.20;14.50;;;;;;;5.24;81.67;100895.19;104493;1314;25297;-56
2024/03/05 10:38:53;;;;;;;15.20;12.90;;;;;;;5.30;81.62;100900.04;102963;1301;25112;-59
2024/03/05 10:41:23;;;;;;;20.50;14.10;;;;;;;5.34;81.58;100901.10;102743;1297;22575;-57
2024/03/05 10:43:51;;;;;;;23.80;17.30;;;;;;;5.34;81.45;100902.46;106838;1293;23248;-57
2024/03/05 10:46:19;;;;;;;18.70;14.50;;;;;;;5.32;81.50;100903.48;103001;1310;22851;-58
2024/03/05 10:48:46;;;;;;;35.60;24.30;;;;;;;5.30;81.51;100901.75;106938;1301;22273;-58
2024/03/05 10:51:13;;;;;;;;;;;;;;;5.33;81.39;100900.91;106573;1314;24247;-58
2024/03/05 10:53:40;;;;;;;36.10;24.10;;;;;;;5.33;81.37;100900.23;102991;1316;22733;-58
2024/03/05 10:56:09;;;;;;;22.80;17.10;;;;;;;5.35;81.36;100902.99;103066;1301;22607;-57
2024/03/05 11:01:21;;;;;;;26.30;18.00;;;;;;;5.33;81.07;100901.60;102995;1310;26522;-57
2024/03/05 11:03:51;;;;;;;17.40;13.50;;;;;;;5.34;81.13;100901.61;103099;1314;25111;-56
2024/03/05 11:06:17;;;;;;;17.60;12.80;;;;;;;5.39;81.15;100901.33;102990;1295;25555;-58
2024/03/05 11:08:44;;;;;;;13.70;11.50;;;;;;;5.43;81.01;100901.70;102847;1316;22877;-58
2024/03/05 11:11:21;;;;;;;13.70;10.20;;;;;;;5.48;81.13;100902.94;102889;1314;25383;-58
2024/03/05 11:13:49;;;;;;;15.70;11.30;;;;;;;5.55;81.02;100901.81;102731;1316;25359;-57
2024/03/05 11:16:16;;;;;;;12.00;10.30;;;;;;;5.56;80.93;100903.02;102893;1297;24288;-57
2024/03/05 11:18:44;;;;;;;10.90;9.60;;;;;;;5.51;80.80;100901.77;102736;1311;23041;-57
2024/03/05 11:21:14;;;;;;;21.20;17.40;;;;;;;5.42;80.72;100903.91;102911;1308;22575;-58